sensor_id;sensor_type;location;lat;lon;timestamp;P1;durP1;ratioP1;P2;durP2;ratioP2
27632;SDS011;15046;50.930;13.334;2023-05-13T00:01:25;5.75;;;3.47;;
27632;SDS011;15046;50.930;13.334;2023-05-13T00:03:51;6.53;;;4.22;;
27632;SDS011;15046;50.930;13.334;2023-05-13T00:06:17;6.57;;;3.67;;
27632;SDS011;15046;50.930;13.334;2023-05-13T00:08:42;9.18;;;3.95;;
27632;SDS011;15046;50.930;13.334;2023-05-13T00:11:08;8.73;;;4.18;;
27632;SDS011;15046;50.930;13.334;2023-05-13T00:13:34;8.77;;;4.07;;
27632;SDS011;15046;50.930;13.334;2023-05-13T00:16:01;5.80;;;3.88;;
27632;SDS011;15046;50.930;13.334;2023-05-13T00:18:27;7.45;;;3.70;;
27632;SDS011;15046;50.930;13.334;2023-05-13T00:20:53;5.95;;;3.90;;
27632;SDS011;15046;50.930;13.334;2023-05-13T00:23:20;5.85;;;3.80;;
27632;SDS011;15046;50.930;13.334;2023-05-13T00:25:46;6.70;;;4.28;;
27632;SDS011;15046;50.930;13.334;2023-05-13T00:28:12;7.20;;;3.92;;
27632;SDS011;15046;50.930;13.334;2023-05-13T00:30:39;8.32;;;4.20;;
27632;SDS011;15046;50.930;13.334;2023-05-13T00:33:09;8.30;;;3.90;;
27632;SDS011;15046;50.930;13.334;2023-05-13T00:35:35;8.15;;;3.92;;
27632;SDS011;15046;50.930;13.334;2023-05-13T00:38:01;7.28;;;4.25;;
27632;SDS011;15046;50.930;13.334;2023-05-13T00:40:27;7.00;;;3.90;;
27632;SDS011;15046;50.930;13.334;2023-05-13T00:42:53;6.07;;;4.20;;
27632;SDS011;15046;50.930;13.334;2023-05-13T00:45:19;6.38;;;3.72;;
27632;SDS011;15046;50.930;13.334;2023-05-13T00:47:45;6.13;;;3.88;;
27632;SDS011;15046;50.930;13.334;2023-05-13T00:50:13;6.25;;;3.72;;
27632;SDS011;15046;50.930;13.334;2023-05-13T00:52:40;7.25;;;4.70;;
27632;SDS011;15046;50.930;13.334;2023-05-13T00:55:07;8.25;;;4.97;;
27632;SDS011;15046;50.930;13.334;2023-05-13T00:57:34;9.18;;;4.25;;
27632;SDS011;15046;50.930;13.334;2023-05-13T01:00:00;8.88;;;4.07;;
27632;SDS011;15046;50.930;13.334;2023-05-13T01:05:30;8.00;;;4.63;;
27632;SDS011;15046;50.930;13.334;2023-05-13T01:10:51;6.90;;;3.92;;
27632;SDS011;15046;50.930;13.334;2023-05-13T01:13:26;6.50;;;3.97;;
27632;SDS011;15046;50.930;13.334;2023-05-13T01:16:00;6.95;;;4.15;;
27632;SDS011;15046;50.930;13.334;2023-05-13T01:18:36;5.65;;;3.70;;
27632;SDS011;15046;50.930;13.334;2023-05-13T01:21:04;8.80;;;3.90;;
27632;SDS011;15046;50.930;13.334;2023-05-13T01:23:31;6.05;;;3.85;;
27632;SDS011;15046;50.930;13.334;2023-05-13T01:25:57;7.47;;;4.13;;
27632;SDS011;15046;50.930;13.334;2023-05-13T01:28:23;7.75;;;4.35;;
27632;SDS011;15046;50.930;13.334;2023-05-13T01:30:49;8.38;;;3.95;;
27632;SDS011;15046;50.930;13.334;2023-05-13T01:33:15;8.15;;;4.63;;
27632;SDS011;15046;50.930;13.334;2023-05-13T01:35:42;6.70;;;4.07;;
27632;SDS011;15046;50.930;13.334;2023-05-13T01:38:09;6.20;;;4.32;;
27632;SDS011;15046;50.930;13.334;2023-05-13T01:40:36;7.10;;;4.18;;
27632;SDS011;15046;50.930;13.334;2023-05-13T01:43:03;7.32;;;4.00;;
27632;SDS011;15046;50.930;13.334;2023-05-13T01:45:29;6.10;;;3.70;;
27632;SDS011;15046;50.930;13.334;2023-05-13T01:47:57;7.60;;;4.25;;
27632;SDS011;15046;50.930;13.334;2023-05-13T01:50:23;6.57;;;4.45;;
27632;SDS011;15046;50.930;13.334;2023-05-13T01:52:49;9.02;;;4.43;;
27632;SDS011;15046;50.930;13.334;2023-05-13T01:55:14;6.22;;;4.07;;
27632;SDS011;15046;50.930;13.334;2023-05-13T01:57:40;7.10;;;4.65;;
27632;SDS011;15046;50.930;13.334;2023-05-13T02:00:07;7.18;;;4.13;;
27632;SDS011;15046;50.930;13.334;2023-05-13T02:02:33;5.97;;;4.25;;
27632;SDS011;15046;50.930;13.334;2023-05-13T02:04:59;6.35;;;3.67;;
27632;SDS011;15046;50.930;13.334;2023-05-13T02:07:24;9.77;;;4.22;;
27632;SDS011;15046;50.930;13.334;2023-05-13T02:09:50;7.43;;;4.32;;
27632;SDS011;15046;50.930;13.334;2023-05-13T02:12:22;7.35;;;4.20;;
27632;SDS011;15046;50.930;13.334;2023-05-13T02:14:48;6.25;;;4.00;;
27632;SDS011;15046;50.930;13.334;2023-05-13T02:17:14;7.95;;;4.47;;
27632;SDS011;15046;50.930;13.334;2023-05-13T02:19:40;6.82;;;4.53;;
27632;SDS011;15046;50.930;13.334;2023-05-13T02:22:05;6.50;;;4.10;;
27632;SDS011;15046;50.930;13.334;2023-05-13T02:24:31;6.68;;;4.05;;
27632;SDS011;15046;50.930;13.334;2023-05-13T02:26:58;6.72;;;4.35;;
27632;SDS011;15046;50.930;13.334;2023-05-13T02:29:24;8.52;;;4.90;;
27632;SDS011;15046;50.930;13.334;2023-05-13T02:31:50;7.03;;;4.05;;
27632;SDS011;15046;50.930;13.334;2023-05-13T02:34:16;8.68;;;4.25;;
27632;SDS011;15046;50.930;13.334;2023-05-13T02:36:42;7.07;;;4.30;;
27632;SDS011;15046;50.930;13.334;2023-05-13T02:39:08;11.77;;;4.43;;
27632;SDS011;15046;50.930;13.334;2023-05-13T02:41:33;5.57;;;3.80;;
27632;SDS011;15046;50.930;13.334;2023-05-13T02:43:59;8.23;;;4.90;;
27632;SDS011;15046;50.930;13.334;2023-05-13T02:46:25;7.57;;;4.63;;
27632;SDS011;15046;50.930;13.334;2023-05-13T02:48:51;6.70;;;4.50;;
27632;SDS011;15046;50.930;13.334;2023-05-13T02:51:16;7.25;;;4.53;;
27632;SDS011;15046;50.930;13.334;2023-05-13T02:53:42;6.72;;;4.20;;
27632;SDS011;15046;50.930;13.334;2023-05-13T02:56:08;6.78;;;4.15;;
27632;SDS011;15046;50.930;13.334;2023-05-13T02:58:34;7.50;;;4.70;;
27632;SDS011;15046;50.930;13.334;2023-05-13T03:01:00;7.00;;;4.30;;
27632;SDS011;15046;50.930;13.334;2023-05-13T03:03:26;7.35;;;4.55;;
27632;SDS011;15046;50.930;13.334;2023-05-13T03:05:52;7.88;;;4.60;;
27632;SDS011;15046;50.930;13.334;2023-05-13T03:08:17;6.90;;;4.78;;
27632;SDS011;15046;50.930;13.334;2023-05-13T03:10:43;7.20;;;4.60;;
27632;SDS011;15046;50.930;13.334;2023-05-13T03:13:09;6.45;;;4.63;;
27632;SDS011;15046;50.930;13.334;2023-05-13T03:15:35;8.50;;;4.57;;
27632;SDS011;15046;50.930;13.334;2023-05-13T03:18:01;8.45;;;5.53;;
27632;SDS011;15046;50.930;13.334;2023-05-13T03:20:26;7.55;;;5.05;;
27632;SDS011;15046;50.930;13.334;2023-05-13T03:22:52;8.80;;;5.32;;
27632;SDS011;15046;50.930;13.334;2023-05-13T03:25:18;6.97;;;4.70;;
27632;SDS011;15046;50.930;13.334;2023-05-13T03:27:44;7.53;;;4.88;;
27632;SDS011;15046;50.930;13.334;2023-05-13T03:30:10;7.32;;;4.85;;
27632;SDS011;15046;50.930;13.334;2023-05-13T03:32:36;8.85;;;5.20;;
27632;SDS011;15046;50.930;13.334;2023-05-13T03:35:02;6.85;;;4.93;;
27632;SDS011;15046;50.930;13.334;2023-05-13T03:37:28;7.82;;;4.93;;
27632;SDS011;15046;50.930;13.334;2023-05-13T03:39:54;7.57;;;4.82;;
27632;SDS011;15046;50.930;13.334;2023-05-13T03:42:20;9.65;;;5.15;;
27632;SDS011;15046;50.930;13.334;2023-05-13T03:44:47;8.43;;;5.68;;
27632;SDS011;15046;50.930;13.334;2023-05-13T03:47:13;11.27;;;5.72;;
27632;SDS011;15046;50.930;13.334;2023-05-13T03:49:39;10.50;;;6.22;;
27632;SDS011;15046;50.930;13.334;2023-05-13T03:52:04;9.05;;;5.97;;
27632;SDS011;15046;50.930;13.334;2023-05-13T03:54:33;10.45;;;6.20;;
27632;SDS011;15046;50.930;13.334;2023-05-13T03:56:59;10.45;;;6.03;;
27632;SDS011;15046;50.930;13.334;2023-05-13T03:59:25;10.45;;;6.15;;
27632;SDS011;15046;50.930;13.334;2023-05-13T04:01:51;12.27;;;6.38;;
27632;SDS011;15046;50.930;13.334;2023-05-13T04:04:17;10.57;;;6.43;;
27632;SDS011;15046;50.930;13.334;2023-05-13T04:06:43;10.32;;;6.25;;
27632;SDS011;15046;50.930;13.334;2023-05-13T04:09:08;11.07;;;6.38;;
27632;SDS011;15046;50.930;13.334;2023-05-13T04:11:34;11.48;;;7.35;;
27632;SDS011;15046;50.930;13.334;2023-05-13T04:14:00;9.15;;;6.25;;
27632;SDS011;15046;50.930;13.334;2023-05-13T04:16:26;9.65;;;6.65;;
27632;SDS011;15046;50.930;13.334;2023-05-13T04:18:51;10.60;;;6.38;;
27632;SDS011;15046;50.930;13.334;2023-05-13T04:21:17;11.30;;;7.32;;
27632;SDS011;15046;50.930;13.334;2023-05-13T04:23:43;13.02;;;6.75;;
27632;SDS011;15046;50.930;13.334;2023-05-13T04:26:09;10.40;;;6.50;;
27632;SDS011;15046;50.930;13.334;2023-05-13T04:28:35;9.45;;;6.05;;
27632;SDS011;15046;50.930;13.334;2023-05-13T04:31:01;9.43;;;6.10;;
27632;SDS011;15046;50.930;13.334;2023-05-13T04:33:27;10.20;;;5.63;;
27632;SDS011;15046;50.930;13.334;2023-05-13T04:35:53;8.95;;;5.57;;
27632;SDS011;15046;50.930;13.334;2023-05-13T04:38:19;9.27;;;5.90;;
27632;SDS011;15046;50.930;13.334;2023-05-13T04:40:45;8.05;;;5.70;;
27632;SDS011;15046;50.930;13.334;2023-05-13T04:43:11;8.73;;;5.32;;
27632;SDS011;15046;50.930;13.334;2023-05-13T04:45:38;10.98;;;5.68;;
27632;SDS011;15046;50.930;13.334;2023-05-13T04:48:04;12.10;;;6.38;;
27632;SDS011;15046;50.930;13.334;2023-05-13T04:50:30;8.38;;;5.75;;
27632;SDS011;15046;50.930;13.334;2023-05-13T04:52:56;12.07;;;5.53;;
27632;SDS011;15046;50.930;13.334;2023-05-13T04:55:22;8.82;;;5.55;;
27632;SDS011;15046;50.930;13.334;2023-05-13T04:57:48;10.35;;;5.97;;
27632;SDS011;15046;50.930;13.334;2023-05-13T05:00:14;9.07;;;5.55;;
27632;SDS011;15046;50.930;13.334;2023-05-13T05:02:40;8.23;;;5.30;;
27632;SDS011;15046;50.930;13.334;2023-05-13T05:05:06;10.48;;;6.07;;
27632;SDS011;15046;50.930;13.334;2023-05-13T05:07:32;7.65;;;5.35;;
27632;SDS011;15046;50.930;13.334;2023-05-13T05:09:58;10.65;;;6.03;;
27632;SDS011;15046;50.930;13.334;2023-05-13T05:12:24;9.65;;;5.38;;
27632;SDS011;15046;50.930;13.334;2023-05-13T05:14:50;9.77;;;5.38;;
27632;SDS011;15046;50.930;13.334;2023-05-13T05:17:15;10.15;;;5.50;;
27632;SDS011;15046;50.930;13.334;2023-05-13T05:19:41;7.60;;;4.65;;
27632;SDS011;15046;50.930;13.334;2023-05-13T05:22:07;7.40;;;4.63;;
27632;SDS011;15046;50.930;13.334;2023-05-13T05:24:33;10.57;;;4.95;;
27632;SDS011;15046;50.930;13.334;2023-05-13T05:26:59;7.68;;;4.80;;
27632;SDS011;15046;50.930;13.334;2023-05-13T05:29:24;8.35;;;4.97;;
27632;SDS011;15046;50.930;13.334;2023-05-13T05:31:50;7.82;;;5.00;;
27632;SDS011;15046;50.930;13.334;2023-05-13T05:34:16;7.75;;;4.63;;
27632;SDS011;15046;50.930;13.334;2023-05-13T05:36:42;7.95;;;4.60;;
27632;SDS011;15046;50.930;13.334;2023-05-13T05:39:08;8.13;;;4.63;;
27632;SDS011;15046;50.930;13.334;2023-05-13T05:41:33;8.73;;;4.72;;
27632;SDS011;15046;50.930;13.334;2023-05-13T05:43:59;7.88;;;4.88;;
27632;SDS011;15046;50.930;13.334;2023-05-13T05:46:25;7.85;;;4.57;;
27632;SDS011;15046;50.930;13.334;2023-05-13T05:48:51;6.65;;;4.20;;
27632;SDS011;15046;50.930;13.334;2023-05-13T05:51:17;8.48;;;5.10;;
27632;SDS011;15046;50.930;13.334;2023-05-13T05:53:43;7.78;;;4.30;;
27632;SDS011;15046;50.930;13.334;2023-05-13T05:56:09;6.18;;;4.05;;
27632;SDS011;15046;50.930;13.334;2023-05-13T05:58:35;8.15;;;4.50;;
27632;SDS011;15046;50.930;13.334;2023-05-13T06:01:02;7.25;;;4.30;;
27632;SDS011;15046;50.930;13.334;2023-05-13T06:03:27;7.35;;;4.32;;
27632;SDS011;15046;50.930;13.334;2023-05-13T06:05:55;7.00;;;4.15;;
27632;SDS011;15046;50.930;13.334;2023-05-13T06:08:21;5.85;;;3.72;;
27632;SDS011;15046;50.930;13.334;2023-05-13T06:10:53;7.55;;;3.85;;
27632;SDS011;15046;50.930;13.334;2023-05-13T06:13:20;6.90;;;3.90;;
27632;SDS011;15046;50.930;13.334;2023-05-13T06:15:46;6.63;;;3.90;;
27632;SDS011;15046;50.930;13.334;2023-05-13T06:18:12;7.80;;;3.92;;
27632;SDS011;15046;50.930;13.334;2023-05-13T06:20:38;7.38;;;4.25;;
27632;SDS011;15046;50.930;13.334;2023-05-13T06:23:05;6.55;;;4.28;;
27632;SDS011;15046;50.930;13.334;2023-05-13T06:25:31;7.85;;;4.70;;
27632;SDS011;15046;50.930;13.334;2023-05-13T06:27:57;6.53;;;4.57;;
27632;SDS011;15046;50.930;13.334;2023-05-13T06:30:23;9.38;;;5.82;;
27632;SDS011;15046;50.930;13.334;2023-05-13T06:32:49;8.55;;;4.93;;
27632;SDS011;15046;50.930;13.334;2023-05-13T06:35:15;8.73;;;4.55;;
27632;SDS011;15046;50.930;13.334;2023-05-13T06:37:41;8.23;;;4.60;;
27632;SDS011;15046;50.930;13.334;2023-05-13T06:40:07;6.65;;;4.38;;
27632;SDS011;15046;50.930;13.334;2023-05-13T06:42:33;9.27;;;5.20;;
27632;SDS011;15046;50.930;13.334;2023-05-13T06:45:06;10.43;;;4.53;;
27632;SDS011;15046;50.930;13.334;2023-05-13T06:47:32;7.50;;;5.10;;
27632;SDS011;15046;50.930;13.334;2023-05-13T06:49:59;8.13;;;5.15;;
27632;SDS011;15046;50.930;13.334;2023-05-13T06:52:26;7.15;;;4.18;;
27632;SDS011;15046;50.930;13.334;2023-05-13T06:54:52;5.55;;;3.70;;
27632;SDS011;15046;50.930;13.334;2023-05-13T06:57:18;6.13;;;4.60;;
27632;SDS011;15046;50.930;13.334;2023-05-13T06:59:44;6.50;;;3.65;;
27632;SDS011;15046;50.930;13.334;2023-05-13T07:02:09;6.68;;;4.10;;
27632;SDS011;15046;50.930;13.334;2023-05-13T07:04:36;5.78;;;3.50;;
27632;SDS011;15046;50.930;13.334;2023-05-13T07:07:01;5.57;;;3.22;;
27632;SDS011;15046;50.930;13.334;2023-05-13T07:09:27;6.28;;;3.83;;
27632;SDS011;15046;50.930;13.334;2023-05-13T07:11:53;5.93;;;3.30;;
27632;SDS011;15046;50.930;13.334;2023-05-13T07:14:19;7.68;;;3.47;;
27632;SDS011;15046;50.930;13.334;2023-05-13T07:16:45;6.75;;;3.42;;
27632;SDS011;15046;50.930;13.334;2023-05-13T07:19:11;6.22;;;3.67;;
27632;SDS011;15046;50.930;13.334;2023-05-13T07:21:37;5.40;;;3.60;;
27632;SDS011;15046;50.930;13.334;2023-05-13T07:24:03;5.88;;;3.17;;
27632;SDS011;15046;50.930;13.334;2023-05-13T07:26:29;6.45;;;3.33;;
27632;SDS011;15046;50.930;13.334;2023-05-13T07:28:56;6.95;;;3.17;;
27632;SDS011;15046;50.930;13.334;2023-05-13T07:31:21;5.95;;;3.42;;
27632;SDS011;15046;50.930;13.334;2023-05-13T07:33:47;7.20;;;3.50;;
27632;SDS011;15046;50.930;13.334;2023-05-13T07:36:13;5.95;;;3.72;;
27632;SDS011;15046;50.930;13.334;2023-05-13T07:38:39;7.45;;;3.78;;
27632;SDS011;15046;50.930;13.334;2023-05-13T07:41:05;4.57;;;2.85;;
27632;SDS011;15046;50.930;13.334;2023-05-13T07:43:34;5.90;;;3.45;;
27632;SDS011;15046;50.930;13.334;2023-05-13T07:46:00;9.38;;;3.83;;
27632;SDS011;15046;50.930;13.334;2023-05-13T07:48:27;10.15;;;3.95;;
27632;SDS011;15046;50.930;13.334;2023-05-13T07:50:53;7.50;;;3.92;;
27632;SDS011;15046;50.930;13.334;2023-05-13T07:53:19;6.15;;;3.05;;
27632;SDS011;15046;50.930;13.334;2023-05-13T07:55:45;8.73;;;3.35;;
27632;SDS011;15046;50.930;13.334;2023-05-13T07:58:11;5.68;;;3.10;;
27632;SDS011;15046;50.930;13.334;2023-05-13T08:00:37;4.45;;;2.97;;
27632;SDS011;15046;50.930;13.334;2023-05-13T08:03:03;4.32;;;2.70;;
27632;SDS011;15046;50.930;13.334;2023-05-13T08:05:29;6.88;;;2.90;;
27632;SDS011;15046;50.930;13.334;2023-05-13T08:07:55;5.82;;;2.95;;
27632;SDS011;15046;50.930;13.334;2023-05-13T08:10:20;6.13;;;2.75;;
27632;SDS011;15046;50.930;13.334;2023-05-13T08:12:46;4.60;;;2.55;;
27632;SDS011;15046;50.930;13.334;2023-05-13T08:15:16;6.13;;;2.58;;
27632;SDS011;15046;50.930;13.334;2023-05-13T08:17:43;5.60;;;3.08;;
27632;SDS011;15046;50.930;13.334;2023-05-13T08:20:08;6.93;;;3.20;;
27632;SDS011;15046;50.930;13.334;2023-05-13T08:22:35;5.88;;;3.10;;
27632;SDS011;15046;50.930;13.334;2023-05-13T08:25:01;7.03;;;3.45;;
27632;SDS011;15046;50.930;13.334;2023-05-13T08:27:27;6.25;;;3.10;;
27632;SDS011;15046;50.930;13.334;2023-05-13T08:29:53;7.40;;;3.35;;
27632;SDS011;15046;50.930;13.334;2023-05-13T08:32:19;7.82;;;2.90;;
27632;SDS011;15046;50.930;13.334;2023-05-13T08:34:45;6.55;;;3.60;;
27632;SDS011;15046;50.930;13.334;2023-05-13T08:37:10;8.25;;;3.70;;
27632;SDS011;15046;50.930;13.334;2023-05-13T08:39:36;5.30;;;3.53;;
27632;SDS011;15046;50.930;13.334;2023-05-13T08:42:02;6.20;;;3.35;;
27632;SDS011;15046;50.930;13.334;2023-05-13T08:44:30;8.40;;;3.47;;
27632;SDS011;15046;50.930;13.334;2023-05-13T08:49:56;7.30;;;3.80;;
27632;SDS011;15046;50.930;13.334;2023-05-13T08:52:23;4.93;;;3.30;;
27632;SDS011;15046;50.930;13.334;2023-05-13T08:54:48;7.43;;;3.20;;
27632;SDS011;15046;50.930;13.334;2023-05-13T08:57:15;4.97;;;2.80;;
27632;SDS011;15046;50.930;13.334;2023-05-13T08:59:40;5.75;;;3.58;;
27632;SDS011;15046;50.930;13.334;2023-05-13T09:02:07;7.55;;;3.85;;
27632;SDS011;15046;50.930;13.334;2023-05-13T09:04:34;6.10;;;3.75;;
27632;SDS011;15046;50.930;13.334;2023-05-13T09:07:05;6.00;;;3.80;;
27632;SDS011;15046;50.930;13.334;2023-05-13T09:09:32;8.63;;;3.97;;
27632;SDS011;15046;50.930;13.334;2023-05-13T09:11:58;7.38;;;4.00;;
27632;SDS011;15046;50.930;13.334;2023-05-13T09:14:28;6.30;;;4.07;;
27632;SDS011;15046;50.930;13.334;2023-05-13T09:16:57;10.43;;;3.88;;
27632;SDS011;15046;50.930;13.334;2023-05-13T09:19:25;5.53;;;3.40;;
27632;SDS011;15046;50.930;13.334;2023-05-13T09:21:51;6.05;;;3.55;;
27632;SDS011;15046;50.930;13.334;2023-05-13T09:24:17;6.30;;;3.88;;
27632;SDS011;15046;50.930;13.334;2023-05-13T09:26:45;11.07;;;4.32;;
27632;SDS011;15046;50.930;13.334;2023-05-13T09:31:44;6.82;;;3.40;;
27632;SDS011;15046;50.930;13.334;2023-05-13T09:34:24;5.20;;;3.50;;
27632;SDS011;15046;50.930;13.334;2023-05-13T09:36:58;6.78;;;4.85;;
27632;SDS011;15046;50.930;13.334;2023-05-13T09:39:28;5.90;;;3.58;;
27632;SDS011;15046;50.930;13.334;2023-05-13T09:41:55;6.63;;;4.10;;
27632;SDS011;15046;50.930;13.334;2023-05-13T09:44:21;5.55;;;3.92;;
27632;SDS011;15046;50.930;13.334;2023-05-13T09:46:47;5.93;;;3.90;;
27632;SDS011;15046;50.930;13.334;2023-05-13T09:49:15;8.23;;;3.80;;
27632;SDS011;15046;50.930;13.334;2023-05-13T09:51:42;7.68;;;4.20;;
27632;SDS011;15046;50.930;13.334;2023-05-13T09:54:10;5.85;;;3.85;;
27632;SDS011;15046;50.930;13.334;2023-05-13T09:56:36;6.13;;;3.78;;
27632;SDS011;15046;50.930;13.334;2023-05-13T09:59:02;8.93;;;3.85;;
27632;SDS011;15046;50.930;13.334;2023-05-13T10:01:28;4.63;;;3.08;;
27632;SDS011;15046;50.930;13.334;2023-05-13T10:03:55;6.10;;;3.28;;
27632;SDS011;15046;50.930;13.334;2023-05-13T10:06:24;4.95;;;2.95;;
27632;SDS011;15046;50.930;13.334;2023-05-13T10:08:51;4.70;;;3.03;;
27632;SDS011;15046;50.930;13.334;2023-05-13T10:11:19;5.30;;;3.03;;
27632;SDS011;15046;50.930;13.334;2023-05-13T10:13:49;6.68;;;3.13;;
27632;SDS011;15046;50.930;13.334;2023-05-13T10:16:23;5.90;;;3.60;;
27632;SDS011;15046;50.930;13.334;2023-05-13T10:18:49;5.85;;;3.10;;
27632;SDS011;15046;50.930;13.334;2023-05-13T10:21:17;5.35;;;3.30;;
27632;SDS011;15046;50.930;13.334;2023-05-13T10:23:44;6.53;;;3.55;;
27632;SDS011;15046;50.930;13.334;2023-05-13T10:26:11;7.78;;;3.50;;
27632;SDS011;15046;50.930;13.334;2023-05-13T10:28:37;7.35;;;3.67;;
27632;SDS011;15046;50.930;13.334;2023-05-13T10:31:04;10.43;;;3.55;;
27632;SDS011;15046;50.930;13.334;2023-05-13T10:33:31;6.90;;;3.20;;
27632;SDS011;15046;50.930;13.334;2023-05-13T10:44:12;4.38;;;3.25;;
27632;SDS011;15046;50.930;13.334;2023-05-13T10:46:38;6.75;;;3.70;;
27632;SDS011;15046;50.930;13.334;2023-05-13T10:49:07;6.45;;;2.97;;
27632;SDS011;15046;50.930;13.334;2023-05-13T10:51:43;7.10;;;3.20;;
27632;SDS011;15046;50.930;13.334;2023-05-13T10:54:21;8.52;;;3.45;;
27632;SDS011;15046;50.930;13.334;2023-05-13T10:56:55;4.78;;;3.45;;
27632;SDS011;15046;50.930;13.334;2023-05-13T10:59:22;6.32;;;3.10;;
27632;SDS011;15046;50.930;13.334;2023-05-13T11:01:48;4.57;;;2.88;;
27632;SDS011;15046;50.930;13.334;2023-05-13T11:04:15;5.22;;;2.90;;
27632;SDS011;15046;50.930;13.334;2023-05-13T11:06:46;6.40;;;3.28;;
27632;SDS011;15046;50.930;13.334;2023-05-13T11:09:14;4.55;;;2.80;;
27632;SDS011;15046;50.930;13.334;2023-05-13T11:11:54;5.65;;;2.58;;
27632;SDS011;15046;50.930;13.334;2023-05-13T11:14:21;5.60;;;2.35;;
27632;SDS011;15046;50.930;13.334;2023-05-13T11:16:52;4.88;;;2.75;;
27632;SDS011;15046;50.930;13.334;2023-05-13T11:19:25;4.85;;;2.47;;
27632;SDS011;15046;50.930;13.334;2023-05-13T11:22:18;6.85;;;3.13;;
27632;SDS011;15046;50.930;13.334;2023-05-13T11:25:01;6.18;;;2.92;;
27632;SDS011;15046;50.930;13.334;2023-05-13T11:27:30;6.00;;;2.22;;
27632;SDS011;15046;50.930;13.334;2023-05-13T11:30:04;5.45;;;2.53;;
27632;SDS011;15046;50.930;13.334;2023-05-13T11:35:19;4.47;;;2.17;;
27632;SDS011;15046;50.930;13.334;2023-05-13T11:37:48;4.97;;;2.70;;
27632;SDS011;15046;50.930;13.334;2023-05-13T11:40:22;7.28;;;2.53;;
27632;SDS011;15046;50.930;13.334;2023-05-13T11:42:50;4.68;;;2.75;;
27632;SDS011;15046;50.930;13.334;2023-05-13T11:45:17;5.05;;;2.85;;
27632;SDS011;15046;50.930;13.334;2023-05-13T11:47:44;6.88;;;3.22;;
27632;SDS011;15046;50.930;13.334;2023-05-13T11:50:26;5.07;;;3.10;;
27632;SDS011;15046;50.930;13.334;2023-05-13T11:52:55;4.15;;;2.30;;
27632;SDS011;15046;50.930;13.334;2023-05-13T11:55:26;4.97;;;2.80;;
27632;SDS011;15046;50.930;13.334;2023-05-13T11:57:56;6.45;;;2.58;;
27632;SDS011;15046;50.930;13.334;2023-05-13T12:00:29;4.80;;;2.80;;
27632;SDS011;15046;50.930;13.334;2023-05-13T12:02:56;6.38;;;2.45;;
27632;SDS011;15046;50.930;13.334;2023-05-13T12:05:23;3.95;;;2.33;;
27632;SDS011;15046;50.930;13.334;2023-05-13T12:07:53;5.40;;;2.80;;
27632;SDS011;15046;50.930;13.334;2023-05-13T12:10:21;4.40;;;2.38;;
27632;SDS011;15046;50.930;13.334;2023-05-13T12:12:48;4.20;;;2.10;;
27632;SDS011;15046;50.930;13.334;2023-05-13T12:15:15;5.63;;;2.83;;
27632;SDS011;15046;50.930;13.334;2023-05-13T12:17:42;3.75;;;2.00;;
27632;SDS011;15046;50.930;13.334;2023-05-13T12:20:15;3.03;;;2.08;;
27632;SDS011;15046;50.930;13.334;2023-05-13T12:28:12;3.45;;;2.28;;
27632;SDS011;15046;50.930;13.334;2023-05-13T12:33:23;5.43;;;2.33;;
27632;SDS011;15046;50.930;13.334;2023-05-13T12:35:52;5.03;;;2.30;;
27632;SDS011;15046;50.930;13.334;2023-05-13T12:38:20;5.47;;;2.70;;
27632;SDS011;15046;50.930;13.334;2023-05-13T12:40:48;4.10;;;2.60;;
27632;SDS011;15046;50.930;13.334;2023-05-13T12:43:16;7.93;;;3.22;;
27632;SDS011;15046;50.930;13.334;2023-05-13T12:45:44;5.05;;;2.55;;
27632;SDS011;15046;50.930;13.334;2023-05-13T12:48:11;3.78;;;2.42;;
27632;SDS011;15046;50.930;13.334;2023-05-13T12:50:38;5.05;;;3.08;;
27632;SDS011;15046;50.930;13.334;2023-05-13T12:53:04;4.22;;;2.75;;
27632;SDS011;15046;50.930;13.334;2023-05-13T12:55:30;5.47;;;2.83;;
27632;SDS011;15046;50.930;13.334;2023-05-13T12:58:00;3.38;;;2.38;;
27632;SDS011;15046;50.930;13.334;2023-05-13T13:00:27;4.43;;;2.55;;
27632;SDS011;15046;50.930;13.334;2023-05-13T13:02:54;4.72;;;2.70;;
27632;SDS011;15046;50.930;13.334;2023-05-13T13:05:21;5.13;;;2.20;;
27632;SDS011;15046;50.930;13.334;2023-05-13T13:07:47;4.07;;;2.08;;
27632;SDS011;15046;50.930;13.334;2023-05-13T13:10:13;2.97;;;2.15;;
27632;SDS011;15046;50.930;13.334;2023-05-13T13:12:40;4.43;;;2.05;;
27632;SDS011;15046;50.930;13.334;2023-05-13T13:15:09;3.83;;;2.20;;
27632;SDS011;15046;50.930;13.334;2023-05-13T13:17:36;5.85;;;2.13;;
27632;SDS011;15046;50.930;13.334;2023-05-13T13:20:02;4.20;;;2.47;;
27632;SDS011;15046;50.930;13.334;2023-05-13T13:22:29;3.03;;;1.80;;
27632;SDS011;15046;50.930;13.334;2023-05-13T13:24:55;3.80;;;2.10;;
27632;SDS011;15046;50.930;13.334;2023-05-13T13:27:21;3.17;;;1.80;;
27632;SDS011;15046;50.930;13.334;2023-05-13T13:29:47;3.10;;;1.90;;
27632;SDS011;15046;50.930;13.334;2023-05-13T13:32:12;4.22;;;2.30;;
27632;SDS011;15046;50.930;13.334;2023-05-13T13:34:38;5.55;;;2.53;;
27632;SDS011;15046;50.930;13.334;2023-05-13T13:37:06;4.57;;;2.67;;
27632;SDS011;15046;50.930;13.334;2023-05-13T13:39:31;4.30;;;2.40;;
27632;SDS011;15046;50.930;13.334;2023-05-13T13:41:58;3.85;;;2.35;;
27632;SDS011;15046;50.930;13.334;2023-05-13T13:44:25;4.72;;;2.50;;
27632;SDS011;15046;50.930;13.334;2023-05-13T13:46:50;3.90;;;2.35;;
27632;SDS011;15046;50.930;13.334;2023-05-13T13:49:16;4.10;;;2.33;;
27632;SDS011;15046;50.930;13.334;2023-05-13T13:51:43;4.20;;;2.72;;
27632;SDS011;15046;50.930;13.334;2023-05-13T13:54:09;3.05;;;2.17;;
27632;SDS011;15046;50.930;13.334;2023-05-13T13:56:36;3.80;;;2.45;;
27632;SDS011;15046;50.930;13.334;2023-05-13T13:59:02;4.18;;;2.67;;
27632;SDS011;15046;50.930;13.334;2023-05-13T14:01:28;3.85;;;2.20;;
27632;SDS011;15046;50.930;13.334;2023-05-13T14:04:08;3.50;;;2.33;;
27632;SDS011;15046;50.930;13.334;2023-05-13T14:06:47;2.80;;;1.90;;
27632;SDS011;15046;50.930;13.334;2023-05-13T14:09:16;6.43;;;2.72;;
27632;SDS011;15046;50.930;13.334;2023-05-13T14:11:42;3.25;;;1.77;;
27632;SDS011;15046;50.930;13.334;2023-05-13T14:14:08;3.58;;;1.60;;
27632;SDS011;15046;50.930;13.334;2023-05-13T14:16:34;4.13;;;1.35;;
27632;SDS011;15046;50.930;13.334;2023-05-13T14:19:00;2.67;;;1.50;;
27632;SDS011;15046;50.930;13.334;2023-05-13T14:21:26;5.03;;;1.33;;
27632;SDS011;15046;50.930;13.334;2023-05-13T14:23:51;3.15;;;1.73;;
27632;SDS011;15046;50.930;13.334;2023-05-13T14:26:17;2.75;;;1.50;;
27632;SDS011;15046;50.930;13.334;2023-05-13T14:28:43;3.05;;;1.70;;
27632;SDS011;15046;50.930;13.334;2023-05-13T14:31:09;4.13;;;1.70;;
27632;SDS011;15046;50.930;13.334;2023-05-13T14:33:35;2.67;;;1.48;;
27632;SDS011;15046;50.930;13.334;2023-05-13T14:36:01;3.78;;;1.48;;
27632;SDS011;15046;50.930;13.334;2023-05-13T14:38:28;3.35;;;1.50;;
27632;SDS011;15046;50.930;13.334;2023-05-13T14:40:55;3.75;;;1.80;;
27632;SDS011;15046;50.930;13.334;2023-05-13T14:43:21;3.15;;;1.70;;
27632;SDS011;15046;50.930;13.334;2023-05-13T14:45:47;2.75;;;1.55;;
27632;SDS011;15046;50.930;13.334;2023-05-13T14:48:13;9.73;;;4.50;;
27632;SDS011;15046;50.930;13.334;2023-05-13T14:50:41;4.10;;;2.33;;
27632;SDS011;15046;50.930;13.334;2023-05-13T14:53:07;2.85;;;1.50;;
27632;SDS011;15046;50.930;13.334;2023-05-13T14:55:33;2.75;;;1.48;;
27632;SDS011;15046;50.930;13.334;2023-05-13T14:57:59;3.45;;;1.40;;
27632;SDS011;15046;50.930;13.334;2023-05-13T15:00:25;5.90;;;2.42;;
27632;SDS011;15046;50.930;13.334;2023-05-13T15:02:51;3.05;;;2.00;;